sensor_id;sensor_type;location;lat;lon;timestamp;P1;durP1;ratioP1;P2;durP2;ratioP2
30707;SDS011;17458;48.958;8.284;2024-03-08T00:01:10;30.42;;;16.55;;
30707;SDS011;17458;48.958;8.284;2024-03-08T00:03:54;29.13;;;15.70;;
30707;SDS011;17458;48.958;8.284;2024-03-08T00:06:38;23.33;;;15.43;;
30707;SDS011;17458;48.958;8.284;2024-03-08T00:09:23;26.70;;;15.65;;
30707;SDS011;17458;48.958;8.284;2024-03-08T00:12:07;21.67;;;14.45;;
30707;SDS011;17458;48.958;8.284;2024-03-08T00:14:53;26.10;;;17.20;;
30707;SDS011;17458;48.958;8.284;2024-03-08T00:17:38;26.77;;;15.35;;
30707;SDS011;17458;48.958;8.284;2024-03-08T00:20:22;28.95;;;16.30;;
30707;SDS011;17458;48.958;8.284;2024-03-08T00:23:07;26.65;;;16.50;;
30707;SDS011;17458;48.958;8.284;2024-03-08T00:25:51;24.48;;;15.63;;
30707;SDS011;17458;48.958;8.284;2024-03-08T00:28:35;28.55;;;15.45;;
30707;SDS011;17458;48.958;8.284;2024-03-08T00:31:18;26.58;;;16.20;;
30707;SDS011;17458;48.958;8.284;2024-03-08T00:34:02;25.63;;;15.95;;
30707;SDS011;17458;48.958;8.284;2024-03-08T00:36:46;26.77;;;14.80;;
30707;SDS011;17458;48.958;8.284;2024-03-08T00:39:31;31.65;;;16.25;;
30707;SDS011;17458;48.958;8.284;2024-03-08T00:42:15;30.08;;;16.48;;
30707;SDS011;17458;48.958;8.284;2024-03-08T00:45:00;27.45;;;15.88;;
30707;SDS011;17458;48.958;8.284;2024-03-08T00:47:44;23.23;;;16.02;;
30707;SDS011;17458;48.958;8.284;2024-03-08T00:50:29;32.83;;;15.20;;
30707;SDS011;17458;48.958;8.284;2024-03-08T00:53:14;28.35;;;16.45;;
30707;SDS011;17458;48.958;8.284;2024-03-08T00:55:58;28.13;;;15.02;;
30707;SDS011;17458;48.958;8.284;2024-03-08T00:58:42;25.50;;;16.05;;
30707;SDS011;17458;48.958;8.284;2024-03-08T01:01:26;28.08;;;16.83;;
30707;SDS011;17458;48.958;8.284;2024-03-08T01:04:10;27.63;;;16.55;;
30707;SDS011;17458;48.958;8.284;2024-03-08T01:06:57;26.77;;;17.00;;
30707;SDS011;17458;48.958;8.284;2024-03-08T01:09:42;26.88;;;15.82;;
30707;SDS011;17458;48.958;8.284;2024-03-08T01:12:26;21.83;;;14.57;;
30707;SDS011;17458;48.958;8.284;2024-03-08T01:15:10;26.48;;;15.68;;
30707;SDS011;17458;48.958;8.284;2024-03-08T01:17:55;29.10;;;15.35;;
30707;SDS011;17458;48.958;8.284;2024-03-08T01:20:39;27.63;;;15.10;;
30707;SDS011;17458;48.958;8.284;2024-03-08T01:23:24;24.88;;;16.00;;
30707;SDS011;17458;48.958;8.284;2024-03-08T01:26:08;25.15;;;15.50;;
30707;SDS011;17458;48.958;8.284;2024-03-08T01:28:52;28.05;;;16.02;;
30707;SDS011;17458;48.958;8.284;2024-03-08T01:31:37;34.08;;;17.30;;
30707;SDS011;17458;48.958;8.284;2024-03-08T01:34:20;21.45;;;15.43;;
30707;SDS011;17458;48.958;8.284;2024-03-08T01:37:04;24.45;;;16.30;;
30707;SDS011;17458;48.958;8.284;2024-03-08T01:39:50;25.67;;;16.73;;
30707;SDS011;17458;48.958;8.284;2024-03-08T01:42:34;27.80;;;15.93;;
30707;SDS011;17458;48.958;8.284;2024-03-08T01:45:21;27.45;;;15.10;;
30707;SDS011;17458;48.958;8.284;2024-03-08T01:48:05;34.20;;;16.45;;
30707;SDS011;17458;48.958;8.284;2024-03-08T01:50:49;27.65;;;16.05;;
30707;SDS011;17458;48.958;8.284;2024-03-08T01:53:34;24.95;;;16.40;;
30707;SDS011;17458;48.958;8.284;2024-03-08T01:56:19;27.15;;;16.38;;
30707;SDS011;17458;48.958;8.284;2024-03-08T01:59:03;31.25;;;16.88;;
30707;SDS011;17458;48.958;8.284;2024-03-08T02:01:47;32.90;;;16.20;;
30707;SDS011;17458;48.958;8.284;2024-03-08T02:04:31;33.53;;;16.20;;
30707;SDS011;17458;48.958;8.284;2024-03-08T02:07:16;28.75;;;17.20;;
30707;SDS011;17458;48.958;8.284;2024-03-08T02:10:00;27.83;;;16.27;;
30707;SDS011;17458;48.958;8.284;2024-03-08T02:12:45;35.42;;;17.88;;
30707;SDS011;17458;48.958;8.284;2024-03-08T02:18:33;32.35;;;17.70;;
30707;SDS011;17458;48.958;8.284;2024-03-08T02:21:18;25.40;;;15.70;;
30707;SDS011;17458;48.958;8.284;2024-03-08T02:24:02;29.27;;;17.80;;
30707;SDS011;17458;48.958;8.284;2024-03-08T02:26:47;26.42;;;16.17;;
30707;SDS011;17458;48.958;8.284;2024-03-08T02:29:31;28.17;;;15.85;;
30707;SDS011;17458;48.958;8.284;2024-03-08T02:32:17;26.00;;;16.02;;
30707;SDS011;17458;48.958;8.284;2024-03-08T02:35:01;30.98;;;17.30;;
30707;SDS011;17458;48.958;8.284;2024-03-08T02:37:46;25.88;;;15.70;;
30707;SDS011;17458;48.958;8.284;2024-03-08T02:40:31;26.05;;;16.52;;
30707;SDS011;17458;48.958;8.284;2024-03-08T02:43:16;29.52;;;16.52;;
30707;SDS011;17458;48.958;8.284;2024-03-08T02:46:04;28.15;;;17.33;;
30707;SDS011;17458;48.958;8.284;2024-03-08T02:48:49;31.88;;;17.75;;
30707;SDS011;17458;48.958;8.284;2024-03-08T02:51:33;26.88;;;17.35;;
30707;SDS011;17458;48.958;8.284;2024-03-08T02:54:19;28.70;;;17.40;;
30707;SDS011;17458;48.958;8.284;2024-03-08T02:57:04;28.17;;;17.13;;
30707;SDS011;17458;48.958;8.284;2024-03-08T02:59:50;28.75;;;16.25;;
30707;SDS011;17458;48.958;8.284;2024-03-08T03:02:34;30.35;;;17.52;;
30707;SDS011;17458;48.958;8.284;2024-03-08T03:05:20;29.92;;;17.17;;
30707;SDS011;17458;48.958;8.284;2024-03-08T03:08:04;41.38;;;17.27;;
30707;SDS011;17458;48.958;8.284;2024-03-08T03:10:52;26.02;;;16.23;;
30707;SDS011;17458;48.958;8.284;2024-03-08T03:13:36;41.88;;;16.20;;
30707;SDS011;17458;48.958;8.284;2024-03-08T03:16:20;30.00;;;16.88;;
30707;SDS011;17458;48.958;8.284;2024-03-08T03:19:04;26.52;;;17.95;;
30707;SDS011;17458;48.958;8.284;2024-03-08T03:21:49;27.27;;;16.83;;
30707;SDS011;17458;48.958;8.284;2024-03-08T03:24:33;28.02;;;16.92;;
30707;SDS011;17458;48.958;8.284;2024-03-08T03:27:17;30.95;;;16.85;;
30707;SDS011;17458;48.958;8.284;2024-03-08T03:30:01;29.38;;;17.35;;
30707;SDS011;17458;48.958;8.284;2024-03-08T03:33:04;28.85;;;16.00;;
30707;SDS011;17458;48.958;8.284;2024-03-08T03:35:50;28.88;;;16.08;;
30707;SDS011;17458;48.958;8.284;2024-03-08T03:38:36;27.92;;;16.15;;
30707;SDS011;17458;48.958;8.284;2024-03-08T03:41:20;31.30;;;14.75;;
30707;SDS011;17458;48.958;8.284;2024-03-08T03:44:04;27.90;;;16.48;;
30707;SDS011;17458;48.958;8.284;2024-03-08T03:46:50;24.73;;;14.98;;
30707;SDS011;17458;48.958;8.284;2024-03-08T03:49:34;29.15;;;16.65;;
30707;SDS011;17458;48.958;8.284;2024-03-08T03:52:18;28.38;;;16.83;;
30707;SDS011;17458;48.958;8.284;2024-03-08T03:55:02;25.20;;;15.77;;
30707;SDS011;17458;48.958;8.284;2024-03-08T03:57:48;30.52;;;17.02;;
30707;SDS011;17458;48.958;8.284;2024-03-08T04:00:32;30.77;;;17.20;;
30707;SDS011;17458;48.958;8.284;2024-03-08T04:03:16;25.98;;;16.48;;
30707;SDS011;17458;48.958;8.284;2024-03-08T04:06:00;31.88;;;16.77;;
30707;SDS011;17458;48.958;8.284;2024-03-08T04:08:45;23.85;;;15.10;;
30707;SDS011;17458;48.958;8.284;2024-03-08T04:11:30;26.08;;;15.80;;
30707;SDS011;17458;48.958;8.284;2024-03-08T04:14:13;26.33;;;16.42;;
30707;SDS011;17458;48.958;8.284;2024-03-08T04:16:57;26.90;;;16.17;;
30707;SDS011;17458;48.958;8.284;2024-03-08T04:19:42;31.60;;;15.93;;
30707;SDS011;17458;48.958;8.284;2024-03-08T04:22:27;27.55;;;15.52;;
30707;SDS011;17458;48.958;8.284;2024-03-08T04:25:12;23.55;;;15.38;;
30707;SDS011;17458;48.958;8.284;2024-03-08T04:27:56;28.45;;;16.42;;
30707;SDS011;17458;48.958;8.284;2024-03-08T04:30:40;30.40;;;18.38;;
30707;SDS011;17458;48.958;8.284;2024-03-08T04:33:24;29.33;;;16.15;;
30707;SDS011;17458;48.958;8.284;2024-03-08T04:36:08;32.65;;;16.55;;
30707;SDS011;17458;48.958;8.284;2024-03-08T04:38:57;25.40;;;15.13;;
30707;SDS011;17458;48.958;8.284;2024-03-08T04:41:41;25.77;;;17.70;;
30707;SDS011;17458;48.958;8.284;2024-03-08T04:44:26;29.65;;;16.38;;
30707;SDS011;17458;48.958;8.284;2024-03-08T04:47:10;29.65;;;15.55;;
30707;SDS011;17458;48.958;8.284;2024-03-08T04:49:55;32.95;;;18.13;;
30707;SDS011;17458;48.958;8.284;2024-03-08T04:52:40;25.13;;;16.75;;
30707;SDS011;17458;48.958;8.284;2024-03-08T04:55:24;23.52;;;14.95;;
30707;SDS011;17458;48.958;8.284;2024-03-08T04:58:08;36.38;;;15.35;;
30707;SDS011;17458;48.958;8.284;2024-03-08T05:00:52;26.20;;;14.15;;
30707;SDS011;17458;48.958;8.284;2024-03-08T05:03:36;33.47;;;17.63;;
30707;SDS011;17458;48.958;8.284;2024-03-08T05:06:20;20.98;;;14.45;;
30707;SDS011;17458;48.958;8.284;2024-03-08T05:09:04;27.08;;;15.20;;
30707;SDS011;17458;48.958;8.284;2024-03-08T05:11:57;24.30;;;15.82;;
30707;SDS011;17458;48.958;8.284;2024-03-08T05:14:43;27.63;;;16.92;;
30707;SDS011;17458;48.958;8.284;2024-03-08T05:17:28;25.90;;;14.68;;
30707;SDS011;17458;48.958;8.284;2024-03-08T05:20:13;34.22;;;15.20;;
30707;SDS011;17458;48.958;8.284;2024-03-08T05:22:58;28.13;;;15.45;;
30707;SDS011;17458;48.958;8.284;2024-03-08T05:25:43;24.05;;;13.85;;
30707;SDS011;17458;48.958;8.284;2024-03-08T05:28:27;26.55;;;17.88;;
30707;SDS011;17458;48.958;8.284;2024-03-08T05:31:17;29.60;;;16.40;;
30707;SDS011;17458;48.958;8.284;2024-03-08T05:34:02;31.25;;;17.48;;
30707;SDS011;17458;48.958;8.284;2024-03-08T05:36:47;27.60;;;16.92;;
30707;SDS011;17458;48.958;8.284;2024-03-08T05:39:33;24.65;;;15.88;;
30707;SDS011;17458;48.958;8.284;2024-03-08T05:42:17;23.85;;;14.43;;
30707;SDS011;17458;48.958;8.284;2024-03-08T05:45:01;26.30;;;15.63;;
30707;SDS011;17458;48.958;8.284;2024-03-08T05:47:44;24.50;;;15.23;;
30707;SDS011;17458;48.958;8.284;2024-03-08T05:50:29;32.13;;;17.10;;
30707;SDS011;17458;48.958;8.284;2024-03-08T05:53:13;26.73;;;14.95;;
30707;SDS011;17458;48.958;8.284;2024-03-08T05:55:58;23.77;;;15.55;;
30707;SDS011;17458;48.958;8.284;2024-03-08T05:58:42;28.42;;;16.75;;
30707;SDS011;17458;48.958;8.284;2024-03-08T06:01:26;27.17;;;16.05;;
30707;SDS011;17458;48.958;8.284;2024-03-08T06:04:10;23.58;;;15.07;;
30707;SDS011;17458;48.958;8.284;2024-03-08T06:06:57;21.08;;;13.77;;
30707;SDS011;17458;48.958;8.284;2024-03-08T06:09:41;30.23;;;16.63;;
30707;SDS011;17458;48.958;8.284;2024-03-08T06:12:28;23.92;;;14.68;;
30707;SDS011;17458;48.958;8.284;2024-03-08T06:15:16;25.88;;;14.93;;
30707;SDS011;17458;48.958;8.284;2024-03-08T06:18:00;27.73;;;15.82;;
30707;SDS011;17458;48.958;8.284;2024-03-08T06:20:44;21.75;;;13.95;;
30707;SDS011;17458;48.958;8.284;2024-03-08T06:23:29;20.92;;;14.45;;
30707;SDS011;17458;48.958;8.284;2024-03-08T06:26:13;28.80;;;15.25;;
30707;SDS011;17458;48.958;8.284;2024-03-08T06:28:57;26.52;;;16.38;;
30707;SDS011;17458;48.958;8.284;2024-03-08T06:31:41;23.80;;;13.93;;
30707;SDS011;17458;48.958;8.284;2024-03-08T06:34:25;36.95;;;16.48;;
30707;SDS011;17458;48.958;8.284;2024-03-08T06:37:09;30.73;;;15.63;;
30707;SDS011;17458;48.958;8.284;2024-03-08T06:39:53;21.77;;;14.75;;
30707;SDS011;17458;48.958;8.284;2024-03-08T06:42:39;26.63;;;16.75;;
30707;SDS011;17458;48.958;8.284;2024-03-08T06:45:23;29.63;;;17.67;;
30707;SDS011;17458;48.958;8.284;2024-03-08T06:48:09;27.42;;;15.07;;
30707;SDS011;17458;48.958;8.284;2024-03-08T06:50:53;24.42;;;15.13;;
30707;SDS011;17458;48.958;8.284;2024-03-08T06:53:37;30.92;;;16.38;;
30707;SDS011;17458;48.958;8.284;2024-03-08T06:56:21;23.75;;;15.23;;
30707;SDS011;17458;48.958;8.284;2024-03-08T06:59:06;29.17;;;16.10;;
30707;SDS011;17458;48.958;8.284;2024-03-08T07:01:50;25.88;;;15.98;;
30707;SDS011;17458;48.958;8.284;2024-03-08T07:04:34;24.08;;;14.32;;
30707;SDS011;17458;48.958;8.284;2024-03-08T07:07:21;31.42;;;15.85;;
30707;SDS011;17458;48.958;8.284;2024-03-08T07:10:05;22.98;;;14.40;;
30707;SDS011;17458;48.958;8.284;2024-03-08T07:12:54;23.05;;;14.65;;
30707;SDS011;17458;48.958;8.284;2024-03-08T07:15:39;23.80;;;14.13;;
30707;SDS011;17458;48.958;8.284;2024-03-08T07:18:23;21.10;;;14.57;;
30707;SDS011;17458;48.958;8.284;2024-03-08T07:21:07;25.02;;;14.88;;
30707;SDS011;17458;48.958;8.284;2024-03-08T07:23:51;26.08;;;13.90;;
30707;SDS011;17458;48.958;8.284;2024-03-08T07:26:44;30.30;;;16.90;;
30707;SDS011;17458;48.958;8.284;2024-03-08T07:29:33;29.23;;;16.52;;
30707;SDS011;17458;48.958;8.284;2024-03-08T07:32:20;23.58;;;14.52;;
30707;SDS011;17458;48.958;8.284;2024-03-08T07:35:09;21.30;;;14.35;;
30707;SDS011;17458;48.958;8.284;2024-03-08T07:37:53;31.13;;;15.05;;
30707;SDS011;17458;48.958;8.284;2024-03-08T07:40:39;25.00;;;14.68;;
30707;SDS011;17458;48.958;8.284;2024-03-08T07:43:29;29.45;;;16.25;;
30707;SDS011;17458;48.958;8.284;2024-03-08T07:46:13;25.98;;;15.23;;
30707;SDS011;17458;48.958;8.284;2024-03-08T07:48:57;25.65;;;13.20;;
30707;SDS011;17458;48.958;8.284;2024-03-08T07:51:41;26.38;;;16.25;;
30707;SDS011;17458;48.958;8.284;2024-03-08T07:54:25;32.55;;;14.77;;
30707;SDS011;17458;48.958;8.284;2024-03-08T07:57:09;26.75;;;14.82;;
30707;SDS011;17458;48.958;8.284;2024-03-08T07:59:54;21.30;;;14.23;;
30707;SDS011;17458;48.958;8.284;2024-03-08T08:02:38;25.92;;;15.50;;
30707;SDS011;17458;48.958;8.284;2024-03-08T08:05:22;24.67;;;14.63;;
30707;SDS011;17458;48.958;8.284;2024-03-08T08:08:07;25.55;;;14.73;;
30707;SDS011;17458;48.958;8.284;2024-03-08T08:10:54;20.92;;;13.25;;
30707;SDS011;17458;48.958;8.284;2024-03-08T08:13:38;28.73;;;15.80;;
30707;SDS011;17458;48.958;8.284;2024-03-08T08:16:23;27.25;;;14.40;;
30707;SDS011;17458;48.958;8.284;2024-03-08T08:19:07;22.55;;;14.10;;
30707;SDS011;17458;48.958;8.284;2024-03-08T08:21:51;23.30;;;15.20;;
30707;SDS011;17458;48.958;8.284;2024-03-08T08:24:35;23.35;;;14.55;;
30707;SDS011;17458;48.958;8.284;2024-03-08T08:27:20;22.55;;;14.10;;
30707;SDS011;17458;48.958;8.284;2024-03-08T08:30:05;28.63;;;15.75;;
30707;SDS011;17458;48.958;8.284;2024-03-08T08:32:51;26.25;;;15.82;;
30707;SDS011;17458;48.958;8.284;2024-03-08T08:35:38;25.70;;;14.52;;
30707;SDS011;17458;48.958;8.284;2024-03-08T08:38:22;28.52;;;15.75;;
30707;SDS011;17458;48.958;8.284;2024-03-08T08:41:07;22.27;;;14.73;;
30707;SDS011;17458;48.958;8.284;2024-03-08T08:43:51;22.50;;;14.25;;
30707;SDS011;17458;48.958;8.284;2024-03-08T08:46:36;35.85;;;14.10;;
30707;SDS011;17458;48.958;8.284;2024-03-08T08:49:21;27.30;;;14.88;;
30707;SDS011;17458;48.958;8.284;2024-03-08T08:52:05;24.73;;;14.63;;
30707;SDS011;17458;48.958;8.284;2024-03-08T08:54:50;30.00;;;16.15;;
30707;SDS011;17458;48.958;8.284;2024-03-08T08:57:34;24.17;;;14.63;;
30707;SDS011;17458;48.958;8.284;2024-03-08T09:00:19;32.10;;;16.23;;
30707;SDS011;17458;48.958;8.284;2024-03-08T09:03:04;28.38;;;16.33;;
30707;SDS011;17458;48.958;8.284;2024-03-08T09:05:50;26.02;;;14.95;;
30707;SDS011;17458;48.958;8.284;2024-03-08T09:08:34;28.55;;;14.80;;
30707;SDS011;17458;48.958;8.284;2024-03-08T09:11:18;23.35;;;14.90;;
30707;SDS011;17458;48.958;8.284;2024-03-08T09:14:02;22.90;;;12.80;;
30707;SDS011;17458;48.958;8.284;2024-03-08T09:16:46;32.88;;;14.48;;
30707;SDS011;17458;48.958;8.284;2024-03-08T09:19:31;24.67;;;13.88;;
30707;SDS011;17458;48.958;8.284;2024-03-08T09:22:16;26.08;;;13.98;;
30707;SDS011;17458;48.958;8.284;2024-03-08T09:25:02;23.50;;;14.13;;
30707;SDS011;17458;48.958;8.284;2024-03-08T09:27:49;22.38;;;12.65;;
30707;SDS011;17458;48.958;8.284;2024-03-08T09:30:33;29.08;;;13.65;;
30707;SDS011;17458;48.958;8.284;2024-03-08T09:33:18;29.50;;;13.60;;
30707;SDS011;17458;48.958;8.284;2024-03-08T09:36:03;24.48;;;13.75;;
30707;SDS011;17458;48.958;8.284;2024-03-08T09:38:47;25.35;;;13.25;;
30707;SDS011;17458;48.958;8.284;2024-03-08T09:41:33;25.02;;;12.52;;
30707;SDS011;17458;48.958;8.284;2024-03-08T09:44:17;21.42;;;12.68;;
30707;SDS011;17458;48.958;8.284;2024-03-08T09:47:03;30.52;;;15.32;;
30707;SDS011;17458;48.958;8.284;2024-03-08T09:49:48;19.95;;;13.10;;
30707;SDS011;17458;48.958;8.284;2024-03-08T09:52:32;25.48;;;13.43;;
30707;SDS011;17458;48.958;8.284;2024-03-08T09:55:16;24.65;;;14.48;;
30707;SDS011;17458;48.958;8.284;2024-03-08T09:58:05;22.77;;;12.40;;
30707;SDS011;17458;48.958;8.284;2024-03-08T10:01:08;26.30;;;13.20;;
30707;SDS011;17458;48.958;8.284;2024-03-08T10:03:52;23.42;;;13.70;;
30707;SDS011;17458;48.958;8.284;2024-03-08T10:06:39;20.27;;;12.20;;
30707;SDS011;17458;48.958;8.284;2024-03-08T10:09:23;23.05;;;12.68;;
30707;SDS011;17458;48.958;8.284;2024-03-08T10:12:09;17.83;;;11.27;;
30707;SDS011;17458;48.958;8.284;2024-03-08T10:14:55;22.20;;;12.73;;
30707;SDS011;17458;48.958;8.284;2024-03-08T10:17:40;18.55;;;11.70;;
30707;SDS011;17458;48.958;8.284;2024-03-08T10:20:24;23.25;;;13.00;;
30707;SDS011;17458;48.958;8.284;2024-03-08T10:23:10;23.08;;;13.00;;
30707;SDS011;17458;48.958;8.284;2024-03-08T10:25:54;19.13;;;12.75;;
30707;SDS011;17458;48.958;8.284;2024-03-08T10:28:42;21.73;;;14.20;;
30707;SDS011;17458;48.958;8.284;2024-03-08T10:31:27;25.40;;;13.65;;
30707;SDS011;17458;48.958;8.284;2024-03-08T10:34:12;22.30;;;12.93;;
30707;SDS011;17458;48.958;8.284;2024-03-08T10:36:57;23.92;;;13.77;;
30707;SDS011;17458;48.958;8.284;2024-03-08T10:39:54;20.55;;;11.40;;
30707;SDS011;17458;48.958;8.284;2024-03-08T10:42:54;19.73;;;11.65;;
30707;SDS011;17458;48.958;8.284;2024-03-08T10:45:40;24.33;;;13.18;;
30707;SDS011;17458;48.958;8.284;2024-03-08T10:48:30;21.08;;;12.63;;
30707;SDS011;17458;48.958;8.284;2024-03-08T10:51:15;18.77;;;11.95;;
30707;SDS011;17458;48.958;8.284;2024-03-08T10:53:59;22.38;;;13.07;;
30707;SDS011;17458;48.958;8.284;2024-03-08T10:56:47;18.92;;;10.93;;
30707;SDS011;17458;48.958;8.284;2024-03-08T10:59:32;19.27;;;11.60;;
30707;SDS011;17458;48.958;8.284;2024-03-08T11:02:17;19.45;;;12.77;;
30707;SDS011;17458;48.958;8.284;2024-03-08T11:05:03;24.77;;;12.25;;
30707;SDS011;17458;48.958;8.284;2024-03-08T11:07:47;20.73;;;12.35;;
30707;SDS011;17458;48.958;8.284;2024-03-08T11:10:34;21.25;;;12.35;;
30707;SDS011;17458;48.958;8.284;2024-03-08T11:22:01;18.48;;;10.98;;
30707;SDS011;17458;48.958;8.284;2024-03-08T11:24:47;15.68;;;10.85;;
30707;SDS011;17458;48.958;8.284;2024-03-08T11:27:31;20.08;;;12.73;;
30707;SDS011;17458;48.958;8.284;2024-03-08T11:30:16;22.90;;;12.75;;
30707;SDS011;17458;48.958;8.284;2024-03-08T11:33:11;21.58;;;12.00;;
30707;SDS011;17458;48.958;8.284;2024-03-08T11:36:02;20.27;;;12.73;;
30707;SDS011;17458;48.958;8.284;2024-03-08T11:39:01;18.92;;;11.32;;
30707;SDS011;17458;48.958;8.284;2024-03-08T11:41:53;17.92;;;11.05;;
30707;SDS011;17458;48.958;8.284;2024-03-08T11:44:37;18.38;;;11.68;;
30707;SDS011;17458;48.958;8.284;2024-03-08T11:47:21;22.13;;;10.77;;
30707;SDS011;17458;48.958;8.284;2024-03-08T11:50:06;19.85;;;11.32;;
30707;SDS011;17458;48.958;8.284;2024-03-08T11:52:59;20.58;;;12.00;;
30707;SDS011;17458;48.958;8.284;2024-03-08T11:55:48;20.30;;;12.18;;
30707;SDS011;17458;48.958;8.284;2024-03-08T11:58:39;18.88;;;11.05;;
30707;SDS011;17458;48.958;8.284;2024-03-08T12:01:23;24.77;;;10.82;;
30707;SDS011;17458;48.958;8.284;2024-03-08T12:04:11;20.33;;;11.25;;
30707;SDS011;17458;48.958;8.284;2024-03-08T12:06:57;20.05;;;11.95;;
30707;SDS011;17458;48.958;8.284;2024-03-08T12:09:44;16.13;;;10.48;;
30707;SDS011;17458;48.958;8.284;2024-03-08T12:13:01;17.50;;;11.52;;
30707;SDS011;17458;48.958;8.284;2024-03-08T12:15:46;18.60;;;12.25;;
30707;SDS011;17458;48.958;8.284;2024-03-08T12:18:34;16.13;;;10.48;;
30707;SDS011;17458;48.958;8.284;2024-03-08T12:21:19;17.92;;;11.52;;
30707;SDS011;17458;48.958;8.284;2024-03-08T12:24:09;15.75;;;10.05;;
30707;SDS011;17458;48.958;8.284;2024-03-08T12:26:53;18.63;;;10.40;;
30707;SDS011;17458;48.958;8.284;2024-03-08T12:29:41;20.88;;;12.00;;
30707;SDS011;17458;48.958;8.284;2024-03-08T12:32:24;19.05;;;11.40;;
30707;SDS011;17458;48.958;8.284;2024-03-08T12:35:08;17.42;;;10.13;;
30707;SDS011;17458;48.958;8.284;2024-03-08T12:37:57;19.02;;;10.85;;
30707;SDS011;17458;48.958;8.284;2024-03-08T12:40:43;19.02;;;11.07;;
30707;SDS011;17458;48.958;8.284;2024-03-08T12:43:28;15.10;;;10.57;;
30707;SDS011;17458;48.958;8.284;2024-03-08T12:46:19;15.20;;;9.93;;
30707;SDS011;17458;48.958;8.284;2024-03-08T12:49:14;15.10;;;10.65;;
30707;SDS011;17458;48.958;8.284;2024-03-08T12:52:01;18.77;;;11.35;;
30707;SDS011;17458;48.958;8.284;2024-03-08T12:54:45;22.90;;;10.77;;
30707;SDS011;17458;48.958;8.284;2024-03-08T12:57:31;20.45;;;11.25;;
30707;SDS011;17458;48.958;8.284;2024-03-08T13:00:15;20.23;;;11.75;;
30707;SDS011;17458;48.958;8.284;2024-03-08T13:03:07;16.13;;;10.23;;
30707;SDS011;17458;48.958;8.284;2024-03-08T13:05:53;20.13;;;12.20;;
30707;SDS011;17458;48.958;8.284;2024-03-08T13:08:38;17.23;;;9.73;;
30707;SDS011;17458;48.958;8.284;2024-03-08T13:11:25;17.65;;;9.90;;
30707;SDS011;17458;48.958;8.284;2024-03-08T13:14:11;19.77;;;10.18;;
30707;SDS011;17458;48.958;8.284;2024-03-08T13:16:55;13.73;;;8.98;;
30707;SDS011;17458;48.958;8.284;2024-03-08T13:19:41;16.98;;;10.40;;
30707;SDS011;17458;48.958;8.284;2024-03-08T13:22:28;17.20;;;10.18;;
30707;SDS011;17458;48.958;8.284;2024-03-08T13:25:12;15.68;;;9.45;;
30707;SDS011;17458;48.958;8.284;2024-03-08T13:27:57;15.82;;;10.25;;
30707;SDS011;17458;48.958;8.284;2024-03-08T13:30:42;17.85;;;10.77;;
30707;SDS011;17458;48.958;8.284;2024-03-08T13:33:27;18.60;;;10.15;;
30707;SDS011;17458;48.958;8.284;2024-03-08T13:36:11;14.73;;;8.77;;
30707;SDS011;17458;48.958;8.284;2024-03-08T13:38:58;17.42;;;10.15;;
30707;SDS011;17458;48.958;8.284;2024-03-08T13:41:42;16.60;;;10.35;;
30707;SDS011;17458;48.958;8.284;2024-03-08T13:44:28;17.77;;;10.48;;
30707;SDS011;17458;48.958;8.284;2024-03-08T13:47:13;14.82;;;9.05;;
30707;SDS011;17458;48.958;8.284;2024-03-08T13:50:01;18.30;;;10.52;;
30707;SDS011;17458;48.958;8.284;2024-03-08T13:52:45;17.50;;;10.10;;
30707;SDS011;17458;48.958;8.284;2024-03-08T13:55:28;15.95;;;10.18;;
30707;SDS011;17458;48.958;8.284;2024-03-08T13:58:14;15.45;;;9.85;;
30707;SDS011;17458;48.958;8.284;2024-03-08T14:00:58;17.35;;;10.30;;
30707;SDS011;17458;48.958;8.284;2024-03-08T14:03:42;21.70;;;10.70;;
30707;SDS011;17458;48.958;8.284;2024-03-08T14:06:26;18.77;;;10.77;;
30707;SDS011;17458;48.958;8.284;2024-03-08T14:09:11;15.15;;;10.70;;
30707;SDS011;17458;48.958;8.284;2024-03-08T14:12:00;17.50;;;11.27;;
30707;SDS011;17458;48.958;8.284;2024-03-08T14:14:49;18.30;;;10.50;;
30707;SDS011;17458;48.958;8.284;2024-03-08T14:17:33;23.08;;;11.27;;
30707;SDS011;17458;48.958;8.284;2024-03-08T14:20:17;30.90;;;16.85;;
30707;SDS011;17458;48.958;8.284;2024-03-08T14:23:01;20.30;;;11.95;;
30707;SDS011;17458;48.958;8.284;2024-03-08T14:25:45;20.67;;;11.65;;
30707;SDS011;17458;48.958;8.284;2024-03-08T14:28:30;21.00;;;11.30;;
30707;SDS011;17458;48.958;8.284;2024-03-08T14:31:16;17.98;;;10.68;;
30707;SDS011;17458;48.958;8.284;2024-03-08T14:34:02;18.45;;;12.65;;
30707;SDS011;17458;48.958;8.284;2024-03-08T14:36:46;19.52;;;10.57;;
30707;SDS011;17458;48.958;8.284;2024-03-08T14:39:31;18.17;;;11.30;;
30707;SDS011;17458;48.958;8.284;2024-03-08T14:42:17;18.83;;;11.20;;
30707;SDS011;17458;48.958;8.284;2024-03-08T14:45:01;22.67;;;12.98;;
30707;SDS011;17458;48.958;8.284;2024-03-08T14:47:46;23.20;;;12.35;;
30707;SDS011;17458;48.958;8.284;2024-03-08T14:50:33;19.58;;;12.20;;
30707;SDS011;17458;48.958;8.284;2024-03-08T14:53:17;24.10;;;14.15;;
30707;SDS011;17458;48.958;8.284;2024-03-08T14:56:02;18.42;;;12.45;;
30707;SDS011;17458;48.958;8.284;2024-03-08T14:58:47;19.63;;;10.60;;
30707;SDS011;17458;48.958;8.284;2024-03-08T15:01:33;22.10;;;12.23;;
30707;SDS011;17458;48.958;8.284;2024-03-08T15:04:19;18.45;;;11.75;;
30707;SDS011;17458;48.958;8.284;2024-03-08T15:07:03;22.75;;;13.00;;
30707;SDS011;17458;48.958;8.284;2024-03-08T15:09:49;20.05;;;10.95;;
30707;SDS011;17458;48.958;8.284;2024-03-08T15:12:33;23.35;;;12.60;;
30707;SDS011;17458;48.958;8.284;2024-03-08T15:15:17;19.90;;;12.30;;
30707;SDS011;17458;48.958;8.284;2024-03-08T15:18:02;19.73;;;12.82;;
30707;SDS011;17458;48.958;8.284;2024-03-08T15:20:47;22.55;;;12.63;;
30707;SDS011;17458;48.958;8.284;2024-03-08T15:23:33;23.42;;;11.35;;
30707;SDS011;17458;48.958;8.284;2024-03-08T15:26:18;18.23;;;11.05;;
30707;SDS011;17458;48.958;8.284;2024-03-08T15:29:02;19.25;;;11.95;;
30707;SDS011;17458;48.958;8.284;2024-03-08T15:31:46;16.80;;;10.60;;
30707;SDS011;17458;48.958;8.284;2024-03-08T15:34:30;23.25;;;11.85;;
30707;SDS011;17458;48.958;8.284;2024-03-08T15:37:15;20.88;;;12.15;;
30707;SDS011;17458;48.958;8.284;2024-03-08T15:40:00;22.50;;;12.40;;
30707;SDS011;17458;48.958;8.284;2024-03-08T15:42:59;26.98;;;12.93;;
30707;SDS011;17458;48.958;8.284;2024-03-08T15:45:43;23.92;;;12.90;;
30707;SDS011;17458;48.958;8.284;2024-03-08T15:48:28;20.17;;;11.07;;
30707;SDS011;17458;48.958;8.284;2024-03-08T15:51:15;20.67;;;11.65;;
30707;SDS011;17458;48.958;8.284;2024-03-08T15:54:01;22.05;;;11.73;;
30707;SDS011;17458;48.958;8.284;2024-03-08T15:56:47;25.35;;;12.75;;
30707;SDS011;17458;48.958;8.284;2024-03-08T15:59:32;22.77;;;12.07;;
30707;SDS011;17458;48.958;8.284;2024-03-08T16:02:20;25.42;;;13.35;;
30707;SDS011;17458;48.958;8.284;2024-03-08T16:05:06;21.30;;;11.98;;
30707;SDS011;17458;48.958;8.284;2024-03-08T16:07:51;20.88;;;12.15;;
30707;SDS011;17458;48.958;8.284;2024-03-08T16:10:35;21.17;;;13.18;;
30707;SDS011;17458;48.958;8.284;2024-03-08T16:13:20;22.10;;;11.85;;
30707;SDS011;17458;48.958;8.284;2024-03-08T16:16:06;21.55;;;11.48;;
30707;SDS011;17458;48.958;8.284;2024-03-08T16:18:50;17.98;;;11.50;;